Time;durP1;ratioP1;P1;durP2;ratioP2;P2;SDS_P1;SDS_P2;PMS_P1;PMS_P2;Temp;Humidity;BMP_temperature;BMP_pressure;BME280_temperature;BME280_humidity;BME280_pressure;Samples;Min_cycle;Max_cycle;Signal;HPM_P1;HPM_P2
2022/01/31 00:00:52;;;;;;;5.07;1.63;;;;;;;13.09;41.06;101426.81;5075847;28;20021;-62
2022/01/31 00:03:17;;;;;;;10.07;1.85;;;;;;;13.08;40.50;101422.41;5057660;28;20028;-62
2022/01/31 00:05:42;;;;;;;7.25;2.28;;;;;;;13.08;40.67;101425.09;5040703;28;20488;-62
2022/01/31 00:08:08;;;;;;;7.10;2.42;;;;;;;13.05;41.22;101428.88;5075498;28;20025;-62
2022/01/31 00:10:33;;;;;;;8.88;2.20;;;;;;;13.09;40.98;101437.59;5075350;28;20024;-62
2022/01/31 00:13:17;;;;;;;7.65;1.77;;;;;;;13.07;40.56;101443.06;5075048;28;20095;-62
2022/01/31 00:15:46;;;;;;;8.18;2.13;;;;;;;13.06;40.98;101429.75;5075357;28;20123;-62
2022/01/31 00:18:11;;;;;;;6.60;2.58;;;;;;;13.07;41.00;101437.69;5074984;28;20060;-62
2022/01/31 00:20:37;;;;;;;7.13;2.08;;;;;;;13.12;41.00;101443.53;5074963;28;20064;-62
2022/01/31 00:23:02;;;;;;;5.22;2.28;;;;;;;13.10;41.35;101418.59;5075091;28;20055;-62
2022/01/31 00:25:27;;;;;;;4.78;2.30;;;;;;;13.16;41.74;101418.09;5057476;28;20025;-62
2022/01/31 00:27:53;;;;;;;9.57;2.35;;;;;;;13.14;40.57;101392.31;5074898;28;20025;-62
2022/01/31 00:30:18;;;;;;;6.28;2.35;;;;;;;13.15;40.98;101376.03;5057321;28;20064;-62
2022/01/31 00:32:44;;;;;;;10.85;2.20;;;;;;;13.15;40.79;101362.56;5074985;28;20474;-62
2022/01/31 00:35:10;;;;;;;7.70;1.83;;;;;;;13.12;41.83;101346.69;5074771;28;20024;-62
2022/01/31 00:37:36;;;;;;;9.30;2.42;;;;;;;13.13;41.40;101331.41;5053032;28;20044;-63
2022/01/31 00:40:04;;;;;;;5.95;2.05;;;;;;;13.13;41.89;101331.41;5054954;28;20029;-62
2022/01/31 00:42:30;;;;;;;5.10;1.80;;;;;;;13.12;41.53;101316.28;5055031;28;20560;-62
2022/01/31 00:45:07;;;;;;;8.23;1.52;;;;;;;13.08;41.66;101312.16;5054755;28;20390;-62
2022/01/31 00:47:33;;;;;;;14.70;2.30;;;;;;;13.13;41.78;101310.75;5054573;28;20539;-61
2022/01/31 00:52:30;;;;;;;10.18;2.33;;;;;;;13.15;41.35;101271.13;5054976;28;20028;-62
2022/01/31 00:54:55;;;;;;;11.18;2.40;;;;;;;13.16;42.02;101269.28;5054364;28;20555;-62
2022/01/31 00:57:20;;;;;;;12.23;2.00;;;;;;;13.18;41.66;101260.09;5054443;28;20020;-62
2022/01/31 00:59:50;;;;;;;6.35;1.88;;;;;;;13.18;41.11;101241.25;5054480;28;20360;-62
2022/01/31 01:02:16;;;;;;;9.25;1.77;;;;;;;13.19;41.37;101212.53;5054483;28;20053;-62
2022/01/31 01:04:41;;;;;;;12.95;2.65;;;;;;;13.18;41.32;101216.19;5054578;28;20036;-62
2022/01/31 01:07:07;;;;;;;5.28;1.88;;;;;;;13.18;41.87;101217.06;5054384;28;20029;-62
2022/01/31 01:09:32;;;;;;;9.02;2.00;;;;;;;13.12;41.59;101203.31;5054207;28;20017;-62
2022/01/31 01:11:57;;;;;;;6.20;1.80;;;;;;;13.16;41.52;101180.53;5036623;28;20045;-62
2022/01/31 01:14:23;;;;;;;7.50;1.75;;;;;;;13.17;41.36;101172.34;5053231;28;20028;-62
2022/01/31 01:16:48;;;;;;;9.50;2.30;;;;;;;13.16;42.40;101159.00;5054249;28;20048;-62
2022/01/31 01:19:13;;;;;;;5.90;1.52;;;;;;;13.11;42.24;101151.38;5053044;28;20033;-62
2022/01/31 01:21:39;;;;;;;7.70;3.33;;;;;;;13.11;41.18;101151.38;5054381;28;20386;-62
2022/01/31 01:24:05;;;;;;;7.22;1.60;;;;;;;13.10;41.13;101132.66;5054000;28;20107;-62
2022/01/31 01:26:30;;;;;;;7.38;1.42;;;;;;;13.05;41.65;101119.59;5036128;28;20036;-62
2022/01/31 01:28:55;;;;;;;9.55;2.25;;;;;;;13.04;41.75;101125.09;5054081;28;20024;-62
2022/01/31 01:31:21;;;;;;;13.23;2.28;;;;;;;12.98;41.95;101102.31;5053904;28;20032;-62
2022/01/31 01:33:46;;;;;;;5.38;1.50;;;;;;;12.97;42.59;101089.88;5053971;28;20106;-62
2022/01/31 01:36:12;;;;;;;5.47;1.52;;;;;;;13.06;42.10;101089.03;5054618;28;20021;-62
2022/01/31 01:38:37;;;;;;;10.35;1.30;;;;;;;13.06;41.28;101080.97;5073876;28;20043;-62
2022/01/31 01:41:02;;;;;;;10.23;1.90;;;;;;;13.04;41.87;101068.63;5055944;28;20020;-62
2022/01/31 01:43:30;;;;;;;6.95;2.25;;;;;;;13.02;42.53;101060.72;5073868;28;20107;-62
2022/01/31 01:45:59;;;;;;;9.30;2.08;;;;;;;13.00;42.87;101051.94;5074287;28;20385;-62
2022/01/31 01:48:24;;;;;;;10.93;2.10;;;;;;;12.98;42.38;101053.91;5038562;28;20024;-62
2022/01/31 01:50:50;;;;;;;14.73;2.20;;;;;;;12.94;42.39;101049.81;5055490;28;20448;-62
2022/01/31 01:53:16;;;;;;;21.20;2.38;;;;;;;12.93;42.34;101039.19;5073822;28;20028;-61
2022/01/31 01:55:43;;;;;;;9.20;1.52;;;;;;;12.88;42.06;101036.06;5073895;28;20107;-62
2022/01/31 01:58:16;;;;;;;10.60;2.05;;;;;;;12.78;42.77;101019.94;5056092;28;20025;-62
2022/01/31 02:01:02;;;;;;;10.15;1.88;;;;;;;12.81;42.92;101014.28;5055960;28;20522;-62
2022/01/31 02:03:29;;;;;;;13.48;2.33;;;;;;;12.80;42.73;101020.63;5058726;28;20031;-62
2022/01/31 02:05:56;;;;;;;9.82;1.88;;;;;;;12.78;43.41;101003.81;5073836;28;20024;-61
2022/01/31 02:08:22;;;;;;;12.20;1.98;;;;;;;12.75;43.38;101004.06;5073822;28;20107;-62
2022/01/31 02:10:48;;;;;;;2.63;1.67;;;;;;;12.72;43.10;100994.47;5055787;28;20040;-61
2022/01/31 02:13:17;;;;;;;4.50;1.40;;;;;;;12.70;43.59;100995.59;5073658;28;20066;-62
2022/01/31 02:15:49;;;;;;;4.22;1.50;;;;;;;12.67;43.25;100991.31;5073492;28;20033;-61
2022/01/31 02:18:15;;;;;;;8.18;1.85;;;;;;;12.65;43.82;100970.94;5039087;28;20363;-61
2022/01/31 02:20:42;;;;;;;11.55;2.15;;;;;;;12.63;44.01;100962.19;5055807;28;20024;-61
2022/01/31 02:23:12;;;;;;;10.50;2.47;;;;;;;12.57;44.45;100963.59;5073451;28;20024;-60
2022/01/31 02:25:57;;;;;;;9.63;2.28;;;;;;;12.55;44.57;100956.66;5073549;28;20056;-61
2022/01/31 02:28:26;;;;;;;6.80;1.73;;;;;;;12.46;44.33;100938.66;5055784;28;20091;-61
2022/01/31 02:30:52;;;;;;;8.15;1.63;;;;;;;12.37;44.76;100912.66;5073665;28;20050;-61
2022/01/31 02:33:18;;;;;;;8.05;1.27;;;;;;;12.32;44.26;100917.56;5055641;28;20024;-61
2022/01/31 02:35:48;;;;;;;5.20;1.45;;;;;;;12.26;44.16;100906.41;5055842;28;20020;-60
2022/01/31 02:38:14;;;;;;;9.95;1.73;;;;;;;12.21;44.10;100897.91;5055127;28;20059;-61
2022/01/31 02:40:39;;;;;;;5.90;1.42;;;;;;;12.18;45.24;100882.06;5073365;28;20029;-61
2022/01/31 02:43:05;;;;;;;4.75;1.25;;;;;;;12.13;44.71;100884.31;5038902;28;20069;-61
2022/01/31 02:45:31;;;;;;;5.60;2.55;;;;;;;12.11;44.77;100880.94;5073118;28;20482;-61
2022/01/31 02:47:58;;;;;;;7.13;1.83;;;;;;;12.08;45.22;100865.09;5073213;28;20021;-61
2022/01/31 02:50:25;;;;;;;7.03;1.33;;;;;;;12.08;45.43;100842.78;5073488;28;20397;-61
2022/01/31 02:52:59;;;;;;;9.98;1.63;;;;;;;12.09;45.60;100849.81;5073573;28;20166;-61
2022/01/31 02:55:25;;;;;;;9.25;1.65;;;;;;;12.09;45.78;100852.50;5073545;28;20032;-61
2022/01/31 02:57:50;;;;;;;8.90;1.50;;;;;;;12.08;45.25;100853.50;5055541;28;20474;-61
2022/01/31 03:00:16;;;;;;;9.57;2.03;;;;;;;12.07;45.64;100857.16;5073833;28;20031;-61
2022/01/31 03:02:41;;;;;;;8.88;1.95;;;;;;;12.02;45.71;100843.31;5076922;28;20040;-61
2022/01/31 03:05:07;;;;;;;2.97;2.22;;;;;;;12.00;45.64;100853.34;5058891;28;20035;-61
2022/01/31 03:07:34;;;;;;;6.70;1.63;;;;;;;11.97;45.94;100840.19;5076849;28;20450;-61
2022/01/31 03:09:59;;;;;;;6.32;1.55;;;;;;;11.98;46.20;100841.88;5076244;28;20103;-61
2022/01/31 03:12:25;;;;;;;7.47;1.70;;;;;;;11.97;46.01;100829.47;5076477;28;20020;-61
2022/01/31 03:14:50;;;;;;;2.75;1.73;;;;;;;12.01;46.44;100826.34;5058945;28;20033;-61
2022/01/31 03:17:15;;;;;;;2.72;0.98;;;;;;;12.01;46.01;100826.34;5076711;28;20040;-62
2022/01/31 03:19:42;;;;;;;6.20;0.98;;;;;;;12.02;46.47;100816.47;5076831;28;20099;-62
2022/01/31 03:22:08;;;;;;;2.63;1.45;;;;;;;12.05;46.74;100817.06;5076581;28;20047;-61
2022/01/31 03:24:34;;;;;;;2.67;1.10;;;;;;;12.05;46.24;100806.31;5058336;28;20028;-61
2022/01/31 03:27:00;;;;;;;4.85;1.40;;;;;;;12.11;46.33;100804.91;5058397;28;20017;-61
2022/01/31 03:29:25;;;;;;;4.53;1.50;;;;;;;12.10;46.93;100801.38;5076472;28;20020;-61
2022/01/31 03:31:51;;;;;;;1.65;1.30;;;;;;;12.13;46.80;100801.09;5058085;28;20031;-62
2022/01/31 03:34:16;;;;;;;3.55;1.33;;;;;;;12.16;46.87;100789.22;5076051;28;20060;-62
2022/01/31 03:36:43;;;;;;;4.15;1.75;;;;;;;12.13;46.92;100793.03;5075870;28;20048;-62
2022/01/31 03:39:08;;;;;;;2.67;1.60;;;;;;;12.17;46.57;100783.69;5076257;28;20063;-61
2022/01/31 03:41:34;;;;;;;4.07;0.98;;;;;;;12.19;47.30;100792.47;5075836;28;20482;-61
2022/01/31 03:43:59;;;;;;;4.82;1.30;;;;;;;12.21;46.02;100785.13;5075681;28;20027;-61
2022/01/31 03:46:24;;;;;;;6.00;1.67;;;;;;;12.27;47.30;100794.44;5058155;28;20024;-60
2022/01/31 03:48:50;;;;;;;3.55;1.50;;;;;;;12.28;47.22;100813.09;5075965;28;20103;-61
2022/01/31 03:51:15;;;;;;;2.25;1.02;;;;;;;12.32;47.08;100796.69;5075892;28;20067;-61
2022/01/31 03:53:41;;;;;;;2.28;0.90;;;;;;;12.33;46.89;100801.09;5075821;28;20363;-61
2022/01/31 03:56:06;;;;;;;3.50;0.95;;;;;;;12.36;47.06;100799.00;5075733;28;20073;-61
2022/01/31 03:58:32;;;;;;;5.70;1.58;;;;;;;12.42;47.65;100782.31;5075595;28;20021;-61
2022/01/31 04:00:57;;;;;;;2.35;0.77;;;;;;;12.46;47.90;100774.78;5075798;28;20021;-61
2022/01/31 04:03:23;;;;;;;6.53;1.05;;;;;;;12.52;47.67;100776.91;5075553;28;20029;-61
2022/01/31 04:05:48;;;;;;;2.28;1.13;;;;;;;12.55;47.59;100772.09;5057481;28;20039;-61
2022/01/31 04:08:13;;;;;;;8.93;1.13;;;;;;;12.63;48.15;100774.06;5057377;28;20017;-61
2022/01/31 04:10:39;;;;;;;3.15;1.13;;;;;;;12.69;47.06;100760.06;5075235;28;20474;-62
2022/01/31 04:13:07;;;;;;;1.33;0.82;;;;;;;12.73;47.21;100772.22;5056686;28;20031;-61
2022/01/31 04:15:35;;;;;;;3.60;1.13;;;;;;;12.78;47.63;100784.25;5057766;28;20024;-61
2022/01/31 04:18:00;;;;;;;6.00;1.48;;;;;;;12.84;47.79;100790.88;5057289;28;20029;-61
2022/01/31 04:20:26;;;;;;;8.20;1.35;;;;;;;12.86;47.61;100786.19;5075657;28;20039;-61
2022/01/31 04:23:02;;;;;;;8.77;1.48;;;;;;;12.90;47.65;100790.28;5075229;28;20024;-61
2022/01/31 04:25:29;;;;;;;4.53;1.63;;;;;;;12.91;47.16;100789.28;5075070;28;20023;-61
2022/01/31 04:28:04;;;;;;;4.40;1.55;;;;;;;12.95;47.79;100785.34;5057481;28;20031;-61
2022/01/31 04:30:30;;;;;;;7.10;1.58;;;;;;;12.97;47.16;100782.50;5041457;28;20086;-61
2022/01/31 04:32:56;;;;;;;7.03;1.52;;;;;;;12.98;47.97;100774.25;5074780;28;20020;-61
2022/01/31 04:35:21;;;;;;;5.10;1.60;;;;;;;13.00;48.19;100777.69;5056962;28;20031;-61
2022/01/31 04:37:47;;;;;;;4.80;1.50;;;;;;;13.02;47.30;100772.13;5074838;28;20075;-61
2022/01/31 04:40:14;;;;;;;8.60;1.30;;;;;;;13.06;47.95;100782.47;5057084;28;20028;-61
2022/01/31 04:42:42;;;;;;;3.10;1.63;;;;;;;13.11;47.14;100784.75;5074964;28;20033;-61
2022/01/31 04:45:08;;;;;;;8.27;1.95;;;;;;;13.13;47.71;100782.75;5057259;28;20115;-61
2022/01/31 04:47:34;;;;;;;5.35;1.48;;;;;;;13.18;47.46;100786.69;5057328;28;20482;-61
2022/01/31 04:49:59;;;;;;;5.70;1.55;;;;;;;13.20;47.52;100776.66;5074532;28;20072;-61
2022/01/31 04:52:25;;;;;;;8.68;2.00;;;;;;;13.21;46.84;100780.16;5074670;28;20025;-61
2022/01/31 04:54:50;;;;;;;7.10;1.98;;;;;;;13.23;48.01;100772.81;5074663;28;20060;-61
2022/01/31 04:57:17;;;;;;;6.13;1.40;;;;;;;13.24;47.32;100759.22;5074497;28;20020;-61
2022/01/31 04:59:43;;;;;;;5.80;1.80;;;;;;;13.28;47.02;100762.47;5074417;28;20056;-61
2022/01/31 05:02:09;;;;;;;4.15;1.75;;;;;;;13.30;47.83;100750.56;5074599;28;20071;-62
2022/01/31 05:04:34;;;;;;;5.13;1.83;;;;;;;13.32;47.85;100758.47;5074502;28;20494;-61
2022/01/31 05:06:59;;;;;;;9.73;1.52;;;;;;;13.32;47.39;100756.63;5074659;28;20021;-62
2022/01/31 05:09:25;;;;;;;5.88;1.52;;;;;;;13.35;46.90;100750.94;5056307;28;20048;-61
2022/01/31 05:11:50;;;;;;;7.80;1.35;;;;;;;13.35;47.04;100745.56;5074515;28;20020;-61
2022/01/31 05:14:17;;;;;;;12.07;1.58;;;;;;;13.35;47.22;100740.19;5074240;28;20466;-61
2022/01/31 05:16:43;;;;;;;4.38;1.00;;;;;;;13.32;46.79;100735.09;5074176;28;20024;-61
2022/01/31 05:19:08;;;;;;;10.15;2.22;;;;;;;13.38;47.01;100745.28;5055737;28;20547;-62
2022/01/31 05:21:34;;;;;;;3.78;1.17;;;;;;;13.39;48.10;100746.97;5074395;28;20546;-61
2022/01/31 05:23:59;;;;;;;8.77;1.75;;;;;;;13.39;47.97;100730.84;5056159;28;20048;-61
2022/01/31 05:26:24;;;;;;;5.47;1.13;;;;;;;13.45;47.73;100750.06;5073917;28;20073;-61
2022/01/31 05:28:50;;;;;;;6.82;1.95;;;;;;;13.43;46.67;100746.69;5073759;28;20028;-61
2022/01/31 05:31:15;;;;;;;5.22;1.38;;;;;;;13.45;46.56;100755.44;5073902;28;20036;-61
2022/01/31 05:33:40;;;;;;;4.55;1.40;;;;;;;13.46;47.63;100749.03;5073813;28;20024;-62
2022/01/31 05:36:07;;;;;;;2.42;1.13;;;;;;;13.49;47.76;100743.38;5055992;28;20474;-62
2022/01/31 05:38:35;;;;;;;7.20;1.17;;;;;;;13.52;46.97;100740.38;5073590;28;20040;-62
2022/01/31 05:41:04;;;;;;;5.00;0.90;;;;;;;13.51;46.68;100750.31;5073683;28;20025;-62
2022/01/31 05:43:30;;;;;;;2.28;0.93;;;;;;;13.55;47.42;100737.38;5073951;28;20031;-61
2022/01/31 05:45:55;;;;;;;6.85;1.50;;;;;;;13.54;47.43;100733.84;5073724;28;20474;-61
2022/01/31 05:48:21;;;;;;;4.88;1.30;;;;;;;13.59;46.34;100741.50;5055745;28;20028;-61
2022/01/31 05:50:46;;;;;;;6.25;1.20;;;;;;;13.58;47.42;100726.31;5073522;28;20037;-62
2022/01/31 05:53:12;;;;;;;7.13;1.10;;;;;;;13.59;46.11;100730.72;5073847;28;20025;-62
2022/01/31 05:55:38;;;;;;;3.50;1.13;;;;;;;13.59;46.71;100719.97;5073441;28;20024;-61
2022/01/31 05:58:03;;;;;;;3.70;1.00;;;;;;;13.59;46.68;100719.97;5055525;28;20506;-62
2022/01/31 06:00:28;;;;;;;4.00;1.02;;;;;;;13.60;46.32;100727.88;5073345;28;20111;-62
2022/01/31 06:02:58;;;;;;;5.05;0.93;;;;;;;13.55;46.44;100705.94;5073365;28;20479;-62
2022/01/31 06:05:23;;;;;;;7.05;1.08;;;;;;;13.58;46.56;100708.34;5073550;28;20024;-61
2022/01/31 06:07:50;;;;;;;6.68;0.95;;;;;;;13.59;46.85;100703.81;5055745;28;20051;-62
2022/01/31 06:10:16;;;;;;;5.93;1.70;;;;;;;13.58;46.65;100697.56;5073285;28;20025;-62
2022/01/31 06:12:41;;;;;;;5.85;0.90;;;;;;;13.59;47.13;100693.03;5073723;28;20055;-62
2022/01/31 06:15:07;;;;;;;4.57;1.08;;;;;;;13.54;46.27;100689.97;5055654;28;20028;-62
2022/01/31 06:17:33;;;;;;;11.10;1.60;;;;;;;13.54;47.08;100695.34;5073522;28;20032;-62
2022/01/31 06:19:58;;;;;;;5.65;1.20;;;;;;;13.56;46.41;100696.03;5073538;28;20135;-62
2022/01/31 06:22:23;;;;;;;6.90;1.75;;;;;;;13.57;47.01;100697.75;5073184;28;20074;-61
2022/01/31 06:24:49;;;;;;;7.70;1.20;;;;;;;13.56;46.96;100704.13;5055329;28;20051;-61
2022/01/31 06:27:16;;;;;;;10.68;1.38;;;;;;;13.44;47.10;100687.31;5055433;28;20058;-61
2022/01/31 06:29:41;;;;;;;10.68;1.23;;;;;;;13.37;46.35;100687.06;5055358;28;20048;-62
2022/01/31 06:32:07;;;;;;;9.18;1.13;;;;;;;13.32;47.61;100702.81;5073149;28;20071;-61
2022/01/31 06:34:32;;;;;;;8.10;1.60;;;;;;;13.25;46.24;100684.75;5073390;28;20036;-61
2022/01/31 06:37:02;;;;;;;6.53;1.15;;;;;;;13.19;47.14;100696.94;5076900;28;20090;-61
2022/01/31 06:39:27;;;;;;;4.75;0.93;;;;;;;13.16;47.59;100696.41;5077148;28;20167;-61
2022/01/31 06:41:53;;;;;;;4.85;0.98;;;;;;;13.07;46.74;100676.63;5076900;28;20070;-61
2022/01/31 06:44:18;;;;;;;11.45;1.20;;;;;;;13.06;46.69;100701.81;5076891;28;20035;-61
2022/01/31 06:46:43;;;;;;;5.70;0.88;;;;;;;13.00;47.70;100694.31;5076885;28;20493;-62
2022/01/31 06:49:09;;;;;;;7.95;1.25;;;;;;;12.97;47.03;100680.31;5076890;28;20025;-61
2022/01/31 06:51:34;;;;;;;3.22;1.35;;;;;;;12.94;46.64;100705.66;5076790;28;20108;-62
2022/01/31 06:54:01;;;;;;;4.90;1.02;;;;;;;12.92;47.52;100720.25;5076963;28;20060;-61
2022/01/31 06:56:30;;;;;;;6.80;1.20;;;;;;;12.90;46.88;100720.38;5076690;28;20113;-62
2022/01/31 06:58:56;;;;;;;8.20;1.20;;;;;;;12.87;47.31;100717.97;5059509;28;20028;-62
2022/01/31 07:01:24;;;;;;;3.75;1.00;;;;;;;12.85;48.07;100720.84;5076456;28;20021;-62
2022/01/31 07:03:50;;;;;;;5.93;1.20;;;;;;;12.83;47.56;100722.84;5042517;28;20025;-62
2022/01/31 07:06:16;;;;;;;4.90;0.90;;;;;;;12.85;47.37;100722.66;5077022;28;20037;-62
2022/01/31 07:08:41;;;;;;;5.93;0.90;;;;;;;12.84;46.78;100723.69;5076619;28;20027;-61
2022/01/31 07:11:07;;;;;;;11.80;1.30;;;;;;;12.85;46.99;100726.22;5076609;28;20060;-61
2022/01/31 07:15:57;;;;;;;6.78;1.75;;;;;;;12.89;46.85;100732.16;5077031;28;20401;-62
2022/01/31 07:18:23;;;;;;;7.80;1.85;;;;;;;12.88;46.68;100719.69;5076537;28;20476;-62
2022/01/31 07:20:51;;;;;;;6.78;1.02;;;;;;;12.85;46.67;100717.28;5058781;28;20040;-62
2022/01/31 07:23:23;;;;;;;5.57;1.33;;;;;;;12.86;46.86;100727.06;5076151;28;20025;-61
2022/01/31 07:25:49;;;;;;;4.67;1.07;;;;;;;12.85;46.56;100717.28;5076597;28;20041;-62
2022/01/31 07:28:19;;;;;;;5.95;0.93;;;;;;;12.80;46.82;100738.38;5076500;28;20385;-61
2022/01/31 07:30:46;;;;;;;6.25;1.88;;;;;;;12.74;47.09;100734.44;5059385;28;20033;-62
2022/01/31 07:33:12;;;;;;;6.55;0.82;;;;;;;12.70;47.15;100726.84;5076294;28;20363;-61
2022/01/31 07:35:40;;;;;;;4.43;0.65;;;;;;;12.67;47.31;100738.69;5076061;28;20166;-62
2022/01/31 07:38:05;;;;;;;5.38;1.00;;;;;;;12.62;46.97;100726.69;5054331;28;20037;-61
2022/01/31 07:40:31;;;;;;;1.20;0.60;;;;;;;12.63;47.38;100731.06;5054788;28;20075;-61
2022/01/31 07:42:56;;;;;;;8.30;1.10;;;;;;;12.60;48.00;100731.38;5056188;28;20035;-61
2022/01/31 07:45:21;;;;;;;4.68;0.75;;;;;;;12.57;47.73;100737.03;5055714;28;20056;-61
2022/01/31 07:47:47;;;;;;;5.80;1.00;;;;;;;12.55;47.77;100737.19;5054490;28;20028;-61
2022/01/31 07:50:13;;;;;;;3.92;0.90;;;;;;;12.55;47.82;100734.50;5055973;28;20096;-61
2022/01/31 07:52:39;;;;;;;7.38;0.95;;;;;;;12.48;47.20;100727.97;5055955;28;20162;-61
2022/01/31 07:55:05;;;;;;;10.52;1.50;;;;;;;12.56;47.31;100740.72;5055837;28;20383;-61
2022/01/31 07:57:31;;;;;;;5.07;1.40;;;;;;;12.58;46.89;100738.72;5054745;28;20098;-61
2022/01/31 07:59:56;;;;;;;6.75;0.90;;;;;;;12.59;46.92;100735.88;5055572;28;20025;-61
2022/01/31 08:02:21;;;;;;;6.22;1.35;;;;;;;12.63;47.57;100741.81;5055234;28;20075;-61
2022/01/31 08:04:47;;;;;;;7.50;1.00;;;;;;;12.66;47.32;100747.75;5055395;28;20100;-61
2022/01/31 08:07:12;;;;;;;5.15;1.30;;;;;;;12.70;46.71;100746.47;5055160;28;20479;-61
2022/01/31 08:09:38;;;;;;;13.60;1.17;;;;;;;12.69;47.69;100741.25;5055477;28;20094;-61
2022/01/31 08:12:05;;;;;;;4.43;0.98;;;;;;;12.75;47.02;100735.31;5055256;28;20044;-61
2022/01/31 08:14:30;;;;;;;5.72;1.95;;;;;;;12.75;46.78;100746.91;5055163;28;20024;-61
2022/01/31 08:16:56;;;;;;;3.92;0.80;;;;;;;12.73;47.56;100731.91;5055539;28;20383;-61
2022/01/31 08:19:21;;;;;;;5.20;1.02;;;;;;;12.74;47.25;100742.50;5055102;28;20025;-61
2022/01/31 08:21:46;;;;;;;2.13;0.98;;;;;;;12.74;46.78;100749.72;5055265;28;20471;-61
2022/01/31 08:24:12;;;;;;;11.40;1.70;;;;;;;12.67;47.38;100738.69;5054983;28;20025;-61
2022/01/31 08:26:39;;;;;;;5.68;0.75;;;;;;;12.70;46.77;100753.72;5054930;28;20037;-61
2022/01/31 08:29:18;;;;;;;7.07;0.90;;;;;;;12.68;47.01;100742.22;5054906;28;20021;-61
2022/01/31 08:31:46;;;;;;;15.32;1.23;;;;;;;12.69;47.58;100741.25;5055327;28;20033;-61
2022/01/31 08:36:40;;;;;;;10.05;1.67;;;;;;;12.66;47.62;100746.91;5055450;28;20025;-61
2022/01/31 08:39:24;;;;;;;6.20;1.35;;;;;;;12.64;48.11;100739.00;5074627;28;20120;-61
2022/01/31 08:41:51;;;;;;;10.95;2.72;;;;;;;12.62;46.99;100751.72;5074526;28;20031;-62
2022/01/31 08:44:18;;;;;;;6.43;1.17;;;;;;;12.61;47.59;100750.03;5074478;28;20024;-61
2022/01/31 08:46:47;;;;;;;4.50;1.42;;;;;;;12.62;46.99;100750.88;5074520;28;20035;-61
2022/01/31 08:49:14;;;;;;;6.80;1.30;;;;;;;12.59;47.71;100756.56;5056306;28;20021;-61
2022/01/31 08:51:40;;;;;;;10.63;1.25;;;;;;;12.60;47.54;100759.09;5074796;28;20099;-61
2022/01/31 08:54:06;;;;;;;9.85;1.38;;;;;;;12.60;47.41;100764.47;5074480;28;20029;-61
2022/01/31 08:56:38;;;;;;;13.95;2.58;;;;;;;12.60;48.24;100758.22;5074557;28;20535;-61
2022/01/31 08:59:05;;;;;;;4.57;1.10;;;;;;;12.54;48.13;100745.38;5073822;28;20020;-61
2022/01/31 09:01:30;;;;;;;13.73;1.27;;;;;;;12.58;48.11;100765.59;5074478;28;20035;-61
2022/01/31 09:04:01;;;;;;;6.07;1.67;;;;;;;12.58;48.18;100765.59;5074312;28;20486;-61
2022/01/31 09:06:29;;;;;;;20.33;1.77;;;;;;;12.54;47.89;100759.66;5056326;28;20035;-61
2022/01/31 09:08:56;;;;;;;6.45;1.20;;;;;;;12.54;47.86;100759.66;5074084;28;20117;-61
2022/01/31 09:11:21;;;;;;;6.28;1.10;;;;;;;12.49;47.99;100744.97;5074153;28;20031;-61
2022/01/31 09:13:46;;;;;;;19.08;2.42;;;;;;;12.50;47.92;100758.25;5073917;28;20021;-61
2022/01/31 09:16:12;;;;;;;12.48;1.67;;;;;;;12.49;47.39;100755.69;5073904;28;20490;-61
2022/01/31 09:18:37;;;;;;;15.98;1.67;;;;;;;12.49;48.59;100756.56;5073900;28;20474;-61
2022/01/31 09:21:03;;;;;;;8.98;1.48;;;;;;;12.50;47.75;100752.03;5074084;28;20074;-61
2022/01/31 09:23:29;;;;;;;7.75;1.40;;;;;;;12.49;47.99;100728.84;5073976;28;20367;-61
2022/01/31 09:25:56;;;;;;;13.90;1.65;;;;;;;12.53;47.35;100743.69;5073752;28;20032;-61
2022/01/31 09:28:22;;;;;;;8.95;1.40;;;;;;;12.53;48.31;100735.63;5073629;28;20050;-61
2022/01/31 09:30:47;;;;;;;6.43;1.58;;;;;;;12.54;48.33;100738.16;5073802;28;20112;-61
2022/01/31 09:33:14;;;;;;;7.15;2.22;;;;;;;12.56;47.85;100746.09;5073970;28;20029;-61
2022/01/31 09:35:40;;;;;;;12.85;1.58;;;;;;;12.59;48.24;100740.44;5074035;28;20490;-61
2022/01/31 09:38:06;;;;;;;14.48;1.75;;;;;;;12.61;47.60;100733.06;5073613;28;20079;-61
2022/01/31 09:40:32;;;;;;;16.70;2.38;;;;;;;12.62;47.52;100742.81;5056318;28;20036;-61
2022/01/31 09:43:29;;;;;;;9.57;1.90;;;;;;;12.67;47.78;100741.38;5073907;28;20029;-61
2022/01/31 09:46:18;;;;;;;19.05;2.20;;;;;;;12.69;48.37;100741.25;5072738;28;20043;-61
2022/01/31 09:48:44;;;;;;;11.45;1.83;;;;;;;12.72;48.08;100755.25;5073862;28;20079;-61
2022/01/31 09:51:11;;;;;;;16.80;1.42;;;;;;;12.71;47.04;100750.84;5073793;28;20522;-62
2022/01/31 09:53:58;;;;;;;8.05;1.20;;;;;;;12.71;47.31;100755.38;5073518;28;20024;-61
2022/01/31 09:56:32;;;;;;;3.95;1.48;;;;;;;12.80;47.47;100770.66;5073077;28;20033;-61
2022/01/31 09:58:58;;;;;;;8.10;1.55;;;;;;;12.81;48.05;100773.19;5074070;28;20055;-61
2022/01/31 10:01:32;;;;;;;12.93;2.00;;;;;;;12.86;47.74;100775.44;5055853;28;20486;-61
2022/01/31 10:03:59;;;;;;;10.85;1.33;;;;;;;12.86;47.64;100786.19;5073964;28;20028;-61
2022/01/31 10:06:25;;;;;;;11.18;1.83;;;;;;;12.89;47.37;100788.59;5073873;28;20093;-60
2022/01/31 10:09:13;;;;;;;8.57;1.45;;;;;;;12.92;47.40;100782.94;5073859;28;20480;-61
2022/01/31 10:11:50;;;;;;;2.63;1.17;;;;;;;12.92;47.62;100782.94;5077189;28;20054;-61
2022/01/31 10:17:21;;;;;;;6.10;1.10;;;;;;;12.90;48.06;100782.22;5078094;28;20513;-61
2022/01/31 10:19:46;;;;;;;9.88;1.20;;;;;;;12.91;47.37;100794.66;5078241;28;20025;-61
2022/01/31 10:22:14;;;;;;;13.85;2.60;;;;;;;12.92;48.07;100800.91;5077756;28;20521;-61
2022/01/31 10:24:41;;;;;;;19.55;3.55;;;;;;;12.85;47.24;100784.50;5077626;28;20025;-61
2022/01/31 10:27:12;;;;;;;9.60;1.35;;;;;;;12.94;46.92;100794.38;5059773;28;20020;-61
2022/01/31 10:29:37;;;;;;;7.55;1.13;;;;;;;12.96;46.92;100803.16;5077321;28;20024;-61
2022/01/31 10:32:16;;;;;;;13.57;1.48;;;;;;;12.96;47.11;100805.84;5077136;28;20486;-61
2022/01/31 10:34:47;;;;;;;12.38;1.10;;;;;;;12.97;47.12;100804.00;5076929;28;20028;-61
2022/01/31 10:37:17;;;;;;;18.30;1.95;;;;;;;12.97;46.83;100814.75;5076993;28;20044;-60
2022/01/31 10:53:54;;;;;;;12.13;2.17;;;;;;;13.06;47.42;100825.50;5076847;28;20082;-61
2022/01/31 10:56:20;;;;;;;19.77;2.63;;;;;;;13.16;47.43;100830.88;5076567;28;20083;-61
2022/01/31 10:59:18;;;;;;;5.75;2.08;;;;;;;13.21;47.50;100834.81;5076710;28;20029;-61
2022/01/31 11:01:49;;;;;;;15.00;2.45;;;;;;;13.24;46.69;100839.91;5070169;28;20111;-61
2022/01/31 11:04:15;;;;;;;8.65;1.92;;;;;;;13.26;47.00;100843.28;5076801;28;20363;-61
2022/01/31 11:06:48;;;;;;;8.75;1.73;;;;;;;13.30;47.54;100827.72;5077152;28;20031;-61
2022/01/31 11:09:18;;;;;;;13.77;3.13;;;;;;;13.33;46.79;100839.03;5076918;28;20021;-62
2022/01/31 11:11:46;;;;;;;14.43;3.00;;;;;;;13.36;47.23;100830.69;5076642;28;20025;-60
2022/01/31 11:14:13;;;;;;;10.18;2.65;;;;;;;13.36;46.81;100849.50;5076167;28;20024;-61
2022/01/31 11:16:40;;;;;;;13.27;2.60;;;;;;;13.39;47.26;100859.13;5076464;28;20028;-61
2022/01/31 11:19:08;;;;;;;17.55;3.75;;;;;;;13.39;47.27;100865.38;5076400;28;20356;-61
2022/01/31 11:21:38;;;;;;;13.00;1.95;;;;;;;13.39;47.41;100870.75;5076336;28;20394;-61
2022/01/31 11:24:16;;;;;;;11.88;2.67;;;;;;;13.34;46.37;100874.88;5076354;28;20433;-60
2022/01/31 11:26:42;;;;;;;17.02;2.47;;;;;;;13.29;46.98;100879.81;5076192;28;20028;-60
2022/01/31 11:29:08;;;;;;;16.90;2.30;;;;;;;13.27;47.57;100882.66;5058311;28;20051;-60
2022/01/31 11:31:38;;;;;;;16.65;2.58;;;;;;;13.23;47.38;100883.94;5075925;28;20024;-61
2022/01/31 11:34:05;;;;;;;27.88;2.53;;;;;;;13.22;47.16;100878.72;5076196;28;20032;-61
2022/01/31 11:36:36;;;;;;;11.82;2.70;;;;;;;13.20;47.26;100894.16;5075947;28;20025;-61
2022/01/31 11:39:13;;;;;;;12.02;1.60;;;;;;;13.15;47.08;100905.31;5075542;28;20503;-61
2022/01/31 11:41:48;;;;;;;20.27;1.95;;;;;;;13.15;47.27;100901.81;5057899;28;20036;-61
2022/01/31 11:44:26;;;;;;;14.73;1.90;;;;;;;13.10;47.03;100898.69;5058027;28;20505;-61
2022/01/31 11:46:55;;;;;;;11.50;1.80;;;;;;;13.07;47.12;100907.00;5057954;28;20016;-62
2022/01/31 11:49:20;;;;;;;4.28;1.52;;;;;;;13.05;47.08;100919.75;5058114;28;20024;-61